Latest Weather Observations for Rockhampton

IDQ60801

Issued at 2:35 pm EST Tuesday 2 September 2014 (issued every 30 minutes, with the page automatically refreshed every 10 minutes)

About weather observations | Map of weather stations | Latest weather observations for QLD | Other Formats
Station Details ID: 039083 Name: ROCKHAMPTON AERO Lat: -23.38 Lon: 150.48 Height: 10.4 m
Data from the previous 72 hours. | See also: Recent months at Rockhampton
Date/Time
EST
Temp
°C
App
Temp
°C
Dew
Point
Rel
Hum
%
Delta-T
°C
Wind Press
QNH
hPa
Press
MSL
hPa
Rain
since 9 am
mm
Dir
 
Spd
km/h
Gust
km/h
Spd
kts
Gust
kts
02/02:30pm 29.1 24.5 5.6 22 12.3 NW 19 32 10 17 1010.8 - 0.0
02/02:00pm 29.3 26.4 8.1 26 11.6 NW 13 17 7 9 1011.5 - 0.0
02/01:30pm 28.4 25.3 9.0 29 10.7 WNW 15 19 8 10 1012.0 - 0.0
02/01:00pm 28.4 23.2 8.8 29 10.8 WNW 26 35 14 19 1012.7 - 0.0
02/12:30pm 27.8 24.6 9.9 32 10.0 NNW 17 28 9 15 1013.5 - 0.0
02/12:00pm 27.2 23.6 10.0 34 9.6 NW 19 26 10 14 1014.2 1014.1 0.0
02/11:30am 26.4 24.1 11.7 40 8.4 WNW 15 28 8 15 1014.8 - 0.0
02/11:00am 25.3 22.5 11.3 41 7.9 NW 17 26 9 14 1015.4 - 0.0
02/10:30am 24.8 21.6 11.8 44 7.4 NNW 20 30 11 16 1016.2 - 0.0
02/10:00am 23.1 20.9 13.2 53 5.7 NNW 17 20 9 11 1016.9 - 0.0
02/09:30am 22.5 21.1 14.5 60 4.7 N 15 19 8 10 1017.0 - 0.0
02/09:00am 20.0 19.2 14.1 69 3.4 NNW 11 17 6 9 1017.4 1017.3 0.0
02/08:30am 18.6 18.5 13.3 71 3.0 NNW 6 9 3 5 1017.7 - 0.0
02/08:00am 16.1 16.4 12.3 78 2.1 N 2 6 1 3 1017.6 - 0.0
02/07:30am 13.5 12.7 11.0 85 1.3 W 6 7 3 4 1017.5 - 0.0
02/07:00am 12.0 12.0 9.8 86 1.1 CALM 0 2 0 1 1017.3 - 0.0
02/06:30am 10.3 10.1 8.9 91 0.7 CALM 0 4 0 2 1017.4 - 0.0
02/06:00am 10.0 9.8 9.0 93 0.5 SW 0 0 0 0 1017.2 1017.1 0.0
02/05:46am 10.1 9.9 8.9 92 0.6 CALM 0 0 0 0 1017.2 - 0.0
02/05:30am 10.1 10.0 9.3 95 0.4 CALM 0 0 0 0 1017.1 - 0.0
02/05:00am 10.2 10.0 9.2 93 0.5 CALM 0 0 0 0 1017.1 - 0.0
02/04:30am 10.5 10.4 9.5 93 0.5 CALM 0 0 0 0 1016.9 - 0.0
02/04:00am 10.9 10.8 9.3 90 0.8 CALM 0 0 0 0 1016.6 - 0.0
02/03:30am 10.8 10.6 9.2 90 0.8 CALM 0 0 0 0 1016.7 - 0.0
02/03:00am 11.7 10.9 9.5 86 1.1 WSW 4 7 2 4 1017.0 1016.9 0.0
02/02:30am 11.8 11.1 10.0 89 0.9 SW 4 9 2 5 1016.9 - 0.0
02/02:00am 12.1 12.0 9.5 84 1.3 CALM 0 0 0 0 1017.0 - 0.0
02/01:30am 12.5 12.6 10.2 86 1.2 CALM 0 0 0 0 1017.3 - 0.0
02/01:00am 12.7 12.8 10.0 84 1.4 CALM 0 0 0 0 1017.4 - 0.0
02/12:30am 12.9 12.9 9.8 81 1.6 CALM 0 0 0 0 1017.7 - 0.0
02/12:18am 13.9 13.8 9.6 75 2.2 CALM 0 0 0 0 1017.8 - 0.0
02/12:00am 13.9 13.8 9.6 75 2.2 SW 0 0 0 0 1017.8 1017.7 0.0
 
Date/Time
EST
Temp
°C
App
Temp
°C
Dew
Point
Rel
Hum
%
Delta-T
°C
Wind Press
QNH
hPa
Press
MSL
hPa
Rain
since 9 am
mm
Dir
 
Spd
km/h
Gust
km/h
Spd
kts
Gust
kts
01/11:59pm 13.8 13.7 9.5 75 2.2 CALM 0 0 0 0 1017.8 - 0.0
01/11:30pm 14.1 14.2 10.0 76 2.1 CALM 0 0 0 0 1017.9 - 0.0
01/11:00pm 14.2 13.0 9.5 73 2.4 WSW 6 7 3 4 1018.0 - 0.0
01/10:30pm 14.8 14.9 10.0 73 2.5 CALM 0 0 0 0 1017.9 - 0.0
01/10:00pm 15.7 15.0 9.9 68 3.0 N 4 6 2 3 1018.1 - 0.0
01/09:30pm 15.9 14.7 9.5 66 3.3 N 6 7 3 4 1018.2 - 0.0
01/09:00pm 16.1 14.5 8.9 62 3.7 NNE 7 9 4 5 1018.2 1018.1 0.0
01/08:00pm 18.4 16.1 7.5 49 5.5 N 9 13 5 7 1017.7 - 0.0
01/07:30pm 19.1 16.4 7.2 46 6.0 N 11 19 6 10 1017.7 - 0.0
01/07:00pm 20.2 17.6 6.2 40 7.0 N 9 13 5 7 1017.6 - 0.0
01/06:44pm 19.5 16.4 7.3 45 6.2 NNE 13 17 7 9 1017.1 - 0.0
01/06:30pm 19.9 16.7 6.8 42 6.6 NNE 13 20 7 11 1016.9 - 0.0
01/06:00pm 20.3 16.9 6.1 39 7.1 NNE 13 17 7 9 1016.5 1016.4 0.0
01/05:30pm 22.5 17.7 4.9 31 8.7 NNE 19 26 10 14 1016.2 - 0.0
01/05:00pm 24.0 19.0 3.8 27 9.9 NNE 19 26 10 14 1015.9 - 0.0
01/04:30pm 25.1 20.5 3.8 25 10.5 NE 17 22 9 12 1015.7 - 0.0
01/04:00pm 26.0 21.4 3.9 24 11.0 NE 17 26 9 14 1015.5 - 0.0
01/03:30pm 26.9 22.7 3.6 22 11.6 NNE 15 26 8 14 1015.3 - 0.0
01/03:00pm 26.9 24.2 5.6 25 11.0 ENE 9 15 5 8 1015.5 1015.4 0.0
01/02:30pm 26.8 23.1 4.7 24 11.2 SE 13 22 7 12 1015.8 - 0.0
01/02:18pm 26.4 23.7 5.6 26 10.7 SE 9 15 5 8 1015.9 - 0.0
01/02:00pm 26.5 23.9 6.1 27 10.6 ESE 9 19 5 10 1016.2 - 0.0
01/01:30pm 26.8 24.1 5.7 26 10.9 S 9 15 5 8 1016.5 - 0.0
01/01:00pm 25.5 21.8 4.2 25 10.6 SSE 13 22 7 12 1016.9 - 0.0
01/12:30pm 26.0 22.6 3.8 24 11.0 N 11 17 6 9 1017.8 - 0.0
01/12:00pm 26.1 22.7 4.0 24 11.0 E 11 22 6 12 1018.4 1018.3 0.0
01/11:30am 25.4 22.5 4.7 26 10.4 E 9 13 5 7 1018.7 - 0.0
01/11:00am 24.0 21.6 6.8 33 8.9 N 9 19 5 10 1018.7 - 0.0
01/10:30am 23.3 20.8 8.1 37 8.0 N 11 19 6 10 1018.9 - 0.0
01/10:00am 22.6 22.0 10.3 45 6.7 W 4 7 2 4 1020.0 - 0.0
01/09:30am 21.2 21.5 12.1 56 5.1 NNE 2 6 1 3 1020.3 - 0.0
01/09:00am 19.3 19.5 11.9 62 4.1 SSW 2 6 1 3 1020.6 1020.5 0.0
01/08:30am 17.2 16.9 10.0 62 3.8 S 2 6 1 3 1020.6 - 0.0
01/08:00am 14.9 14.8 9.4 69 2.8 CALM 0 0 0 0 1020.1 - 0.0
01/07:30am 12.2 12.0 9.0 81 1.6 CALM 0 0 0 0 1019.8 - 0.0
01/07:00am 10.7 9.5 8.2 84 1.2 NNE 4 7 2 4 1019.4 - 0.0
01/06:30am 8.4 7.5 6.2 86 1.0 CALM 0 0 0 0 1019.0 - 0.0
01/06:00am 8.7 7.9 6.3 85 1.1 CALM 0 0 0 0 1018.7 1018.6 0.0
01/05:30am 9.1 8.3 6.7 85 1.1 CALM 0 0 0 0 1018.2 - 0.0
01/05:00am 8.6 7.1 6.7 88 0.9 S 4 9 2 5 1017.9 - 0.0
01/04:30am 9.4 8.6 6.6 83 1.3 CALM 0 0 0 0 1017.8 - 0.0
01/04:00am 9.4 8.6 6.6 83 1.3 CALM 0 2 0 1 1018.0 - 0.0
01/03:30am 9.9 7.8 6.0 77 1.8 SW 6 7 3 4 1018.1 - 0.0
01/03:00am 10.5 9.1 7.4 81 1.5 NE 4 7 2 4 1018.0 1017.9 0.0
01/02:30am 10.4 8.9 6.8 78 1.7 NE 4 9 2 5 1018.2 - 0.0
01/02:00am 10.6 9.9 6.8 77 1.8 CALM 0 0 0 0 1018.4 - 0.0
01/01:30am 10.9 10.1 6.4 74 2.1 CALM 0 0 0 0 1018.5 - 0.0
01/01:00am 11.1 9.1 6.4 73 2.2 SW 6 11 3 6 1018.4 - 0.0
01/12:30am 11.6 10.1 7.0 73 2.2 W 4 7 2 4 1018.4 - 0.0
01/12:00am 11.6 11.0 7.2 74 2.1 CALM 0 0 0 0 1018.6 1018.5 0.0
 
Date/Time
EST
Temp
°C
App
Temp
°C
Dew
Point
Rel
Hum
%
Delta-T
°C
Wind Press
QNH
hPa
Press
MSL
hPa
Rain
since 9 am
mm
Dir
 
Spd
km/h
Gust
km/h
Spd
kts
Gust
kts
31/11:30pm 12.1 11.4 6.9 70 2.5 CALM 0 0 0 0 1018.7 - 0.0
31/11:00pm 12.6 11.8 6.3 65 3.0 CALM 0 0 0 0 1018.7 - 0.0
31/10:30pm 13.1 12.1 5.4 59 3.6 CALM 0 0 0 0 1018.7 - 0.0
31/10:00pm 13.5 12.5 5.4 58 3.8 CALM 0 0 0 0 1018.6 - 0.0
31/09:30pm 15.2 12.8 4.4 48 5.0 ENE 6 7 3 4 1018.3 - 0.0
31/09:00pm 15.3 12.4 4.8 49 4.9 NNE 9 11 5 6 1017.9 1017.9 0.0
31/08:30pm 15.8 13.3 4.7 47 5.2 N 7 9 4 5 1017.9 - 0.0
31/08:00pm 17.6 14.0 3.0 37 6.7 N 11 13 6 7 1017.8 - 0.0
31/07:30pm 18.7 15.1 3.2 35 7.2 N 11 13 6 7 1017.4 - 0.0
31/07:00pm 19.7 15.8 1.3 29 8.3 N 11 15 6 8 1016.8 - 0.0
31/06:30pm 19.6 15.2 2.5 32 7.9 NNE 15 20 8 11 1016.2 - 0.0
31/06:00pm 20.6 15.9 3.3 32 8.2 N 17 22 9 12 1015.6 1015.6 0.0
31/05:30pm 22.5 17.3 2.4 26 9.5 NNE 19 24 10 13 1015.2 - 0.0
31/05:00pm 24.2 19.1 3.2 25 10.2 N 19 24 10 13 1014.9 - 0.0
31/04:30pm 25.6 20.7 4.1 25 10.7 NNE 19 26 10 14 1014.4 - 0.0
31/04:00pm 27.3 23.0 -4.4 12 13.7 WSW 9 17 5 9 1014.2 - 0.0
31/03:30pm 27.4 22.3 -5.2 11 13.9 W 13 20 7 11 1014.1 - 0.0
31/03:00pm 26.5 22.8 -0.3 17 12.4 E 9 17 5 9 1014.3 1014.3 0.0
31/02:30pm 27.2 23.5 2.1 19 12.2 NNE 11 20 6 11 1014.6 - 0.0
31/02:00pm 27.0 23.7 2.4 20 12.0 NNE 9 20 5 11 1014.9 - 0.0
31/01:30pm 26.7 22.6 2.1 20 11.9 NE 13 20 7 11 1015.3 - 0.0
31/01:00pm 25.7 22.2 3.3 23 11.0 NNE 11 15 6 8 1016.0 - 0.0
31/12:30pm 25.3 22.1 3.2 24 10.8 WNW 9 13 5 7 1016.7 - 0.0
31/12:00pm 25.2 22.4 5.0 27 10.2 E 9 17 5 9 1017.2 1017.2 0.0
31/11:30am 24.0 22.1 6.5 32 9.0 SE 6 11 3 6 1017.8 - 0.0
31/11:00am 23.2 21.5 8.5 39 7.8 SE 7 9 4 5 1018.3 - 0.0
31/10:30am 21.9 20.5 9.4 45 6.7 SSE 7 15 4 8 1018.8 - 0.0
31/10:00am 20.7 18.8 9.2 47 6.1 S 9 15 5 8 1019.2 - 0.0
31/09:30am 19.5 19.4 10.8 57 4.7 SE 2 7 1 4 1019.4 - 0.0
31/09:00am 18.1 18.3 11.7 66 3.5 SW 2 6 1 3 1019.7 1019.7 0.0
31/08:30am 15.5 15.1 11.0 74 2.4 SW 4 7 2 4 1019.8 - 0.0
31/08:00am 13.5 13.2 10.0 79 1.8 S 2 6 1 3 1019.7 - 0.0
31/07:30am 11.6 11.4 9.2 85 1.2 CALM 0 0 0 0 1019.5 - 0.0
31/07:00am 9.9 9.6 8.7 92 0.6 CALM 0 0 0 0 1019.3 - 0.0
31/06:30am 8.4 7.6 6.7 89 0.8 CALM 0 0 0 0 1018.9 - 0.0
31/06:00am 8.5 7.8 6.8 89 0.8 CALM 0 0 0 0 1018.4 1018.4 0.0
31/05:30am 8.4 7.8 7.3 93 0.5 CALM 0 0 0 0 1018.2 - 0.0
31/05:00am 9.2 7.3 6.8 85 1.1 SSW 6 7 3 4 1017.9 - 0.0
31/04:30am 9.4 8.2 7.9 90 0.7 S 4 6 2 3 1017.7 - 0.0
31/04:00am 10.3 9.3 8.7 90 0.8 S 4 7 2 4 1017.7 - 0.0
31/03:30am 10.2 9.9 8.8 91 0.7 CALM 0 0 0 0 1017.8 - 0.0
31/03:00am 11.4 11.2 9.0 85 1.2 CALM 0 0 0 0 1017.8 1017.8 0.0
31/02:30am 10.9 10.0 9.1 89 0.9 SSW 4 6 2 3 1017.8 - 0.0
31/02:00am 10.8 9.4 9.0 89 0.9 SSW 6 9 3 5 1017.9 - 0.0
31/01:30am 11.7 11.3 9.9 89 0.9 S 2 6 1 3 1018.1 - 0.0
31/01:00am 11.8 11.0 9.6 86 1.1 SSE 4 7 2 4 1018.2 - 0.0
31/12:30am 13.0 11.9 10.1 82 1.5 NNW 6 11 3 6 1018.3 - 0.0
31/12:00am 12.8 12.9 10.3 85 1.3 CALM 0 6 0 3 1018.5 1018.5 0.0
 
Date/Time
EST
Temp
°C
App
Temp
°C
Dew
Point
Rel
Hum
%
Delta-T
°C
Wind Press
QNH
hPa
Press
MSL
hPa
Rain
since 9 am
mm
Dir
 
Spd
km/h
Gust
km/h
Spd
kts
Gust
kts
30/11:30pm 13.4 13.3 10.7 84 1.4 NW 2 7 1 4 1018.7 - 0.0
30/11:00pm 13.9 14.2 10.9 82 1.6 CALM 0 6 0 3 1018.7 - 0.0
30/10:30pm 14.7 13.9 10.9 78 2.0 W 6 7 3 4 1018.8 - 0.0
30/10:00pm 15.8 14.8 10.9 72 2.6 NW 7 9 4 5 1018.6 - 0.0
30/09:30pm 16.9 15.1 10.7 67 3.3 N 11 15 6 8 1018.4 - 0.0
30/09:00pm 17.6 14.8 10.0 61 4.0 N 15 17 8 9 1018.3 1018.3 0.0
30/08:30pm 17.2 14.8 10.0 62 3.8 N 13 15 7 8 1018.2 - 0.0
30/08:00pm 17.8 15.0 10.1 60 4.1 N 15 20 8 11 1018.0 - 0.0
30/07:30pm 18.3 15.3 9.1 55 4.8 N 15 19 8 10 1017.8 - 0.0
30/07:00pm 18.3 16.8 2.9 36 7.1 CALM 0 0 0 0 1017.4 - 0.0
30/06:30pm 19.8 17.6 3.5 34 7.7 S 4 7 2 4 1016.9 - 0.0
30/06:00pm 22.9 18.8 -3.2 17 11.1 SSW 9 11 5 6 1016.4 1016.4 0.0
30/05:30pm 24.5 19.9 -4.5 14 12.2 S 11 13 6 7 1016.1 - 0.0
30/05:00pm 25.5 20.7 -6.0 12 13.0 S 11 17 6 9 1015.7 - 0.0
30/04:30pm 26.1 20.6 -5.8 12 13.3 S 15 19 8 10 1015.6 - 0.0
30/04:00pm 26.1 20.2 -5.8 12 13.3 S 17 26 9 14 1015.4 - 0.0
30/03:30pm 26.6 22.0 -3.8 13 13.2 SSE 11 20 6 11 1015.4 - 0.0
30/03:00pm 26.2 21.9 -4.4 13 13.1 S 9 19 5 10 1015.5 1015.5 0.0

Other Formats:

Comma delimited format used in spreadsheet applications
http://www.bom.gov.au/fwo/IDQ60801/IDQ60801.94374.axf

JavaScript Object Notation format (JSON) in row-major order
http://www.bom.gov.au/fwo/IDQ60801/IDQ60801.94374.json